createdAt,value
2024-04-30T03:33:09.333Z,3.85
2024-04-30T03:35:37.078Z,3.92
2024-04-30T03:38:04.376Z,3.95
2024-04-30T03:40:31.638Z,3.58
2024-04-30T03:42:58.815Z,3.78
2024-04-30T03:45:25.994Z,4.32
2024-04-30T03:47:53.291Z,4.20
2024-04-30T03:50:20.610Z,3.97
2024-04-30T03:52:47.739Z,4.00
2024-04-30T03:55:14.981Z,4.20
2024-04-30T03:57:42.163Z,3.83
2024-04-30T04:00:09.617Z,4.07
2024-04-30T04:02:36.791Z,4.15
2024-04-30T04:05:04.163Z,4.55
2024-04-30T04:07:31.378Z,4.38
2024-04-30T04:09:58.598Z,4.35
2024-04-30T04:12:44.421Z,4.10
2024-04-30T04:15:11.610Z,3.95
2024-04-30T04:17:38.804Z,3.70
2024-04-30T04:20:06.296Z,4.65
2024-04-30T04:22:33.604Z,4.00
2024-04-30T04:25:00.850Z,3.80
2024-04-30T04:27:28.287Z,4.38
2024-04-30T04:29:55.455Z,5.05
2024-04-30T04:32:22.619Z,4.20
2024-04-30T04:34:49.882Z,4.85
2024-04-30T04:37:17.037Z,4.50
2024-04-30T04:39:44.603Z,4.57
2024-04-30T04:42:11.742Z,3.88
2024-04-30T04:44:38.858Z,4.57
2024-04-30T04:47:06.020Z,3.90
2024-04-30T04:49:33.262Z,4.05
2024-04-30T04:52:00.474Z,4.25
2024-04-30T04:54:27.660Z,5.25
2024-04-30T04:56:54.880Z,4.40
2024-04-30T04:59:22.044Z,4.90
2024-04-30T05:01:49.398Z,4.90
2024-04-30T05:04:16.992Z,4.60
2024-04-30T05:06:44.327Z,4.75
2024-04-30T05:09:11.775Z,4.80
2024-04-30T05:11:39.004Z,4.50
2024-04-30T05:14:06.168Z,5.25
2024-04-30T05:16:33.374Z,5.05
2024-04-30T05:19:00.872Z,4.30
2024-04-30T05:21:28.028Z,4.63
2024-04-30T05:23:55.189Z,4.38
2024-04-30T05:26:22.291Z,5.80
2024-04-30T05:28:49.432Z,6.18
2024-04-30T05:31:16.605Z,5.63
2024-04-30T05:33:43.970Z,5.05
2024-04-30T05:36:11.362Z,5.20
2024-04-30T05:38:38.554Z,5.55
2024-04-30T05:41:06.713Z,5.80
2024-04-30T05:43:34.131Z,5.38
2024-04-30T05:46:01.587Z,5.80
2024-04-30T05:48:28.936Z,5.57
2024-04-30T05:50:56.073Z,6.13
2024-04-30T05:53:23.274Z,6.20
2024-04-30T05:55:50.535Z,5.05
2024-04-30T05:58:17.845Z,5.72
2024-04-30T06:00:45.176Z,6.38
2024-04-30T06:03:12.411Z,5.38
2024-04-30T06:05:39.866Z,5.45
2024-04-30T06:08:10.217Z,6.05
2024-04-30T06:10:37.474Z,6.22
2024-04-30T06:13:04.954Z,5.32
2024-04-30T06:15:32.112Z,6.18
2024-04-30T06:18:01.112Z,5.30
2024-04-30T06:20:28.270Z,5.15
2024-04-30T06:22:55.404Z,5.70
2024-04-30T06:25:22.534Z,4.88
2024-04-30T06:27:49.737Z,4.25
2024-04-30T06:30:16.850Z,4.22
2024-04-30T06:32:44.156Z,4.53
2024-04-30T06:35:11.335Z,4.85
2024-04-30T06:37:38.642Z,4.50
2024-04-30T06:40:06.348Z,4.40
2024-04-30T06:42:34.917Z,4.32
2024-04-30T06:45:02.217Z,4.32
2024-04-30T06:47:29.780Z,4.45
2024-04-30T06:49:56.970Z,4.32
2024-04-30T06:52:24.142Z,4.10
2024-04-30T06:54:51.298Z,4.38
2024-04-30T06:57:18.465Z,4.70
2024-04-30T06:59:45.619Z,4.60
2024-04-30T07:02:12.798Z,3.45
2024-04-30T07:04:40.093Z,4.20
2024-04-30T07:07:07.338Z,4.50
2024-04-30T07:09:34.494Z,4.13
2024-04-30T07:12:01.716Z,3.67
2024-04-30T07:14:28.806Z,3.33
2024-04-30T07:17:02.614Z,3.70
2024-04-30T07:19:33.915Z,3.28
2024-04-30T07:22:01.249Z,3.40
2024-04-30T07:24:28.386Z,3.65
2024-04-30T07:26:55.593Z,3.20
2024-04-30T07:29:22.756Z,3.78
2024-04-30T07:31:50.599Z,3.95
2024-04-30T07:34:18.357Z,4.30
2024-04-30T07:36:45.621Z,3.63
2024-04-30T07:39:12.728Z,4.03
2024-04-30T07:41:39.961Z,3.17
2024-04-30T07:44:07.086Z,3.22
2024-04-30T07:46:34.328Z,3.40
2024-04-30T07:49:01.508Z,3.30
2024-04-30T07:51:28.696Z,2.88
2024-04-30T07:53:55.844Z,3.13
2024-04-30T07:56:23.154Z,3.60
2024-04-30T07:58:50.427Z,3.00
2024-04-30T08:01:17.707Z,3.00
2024-04-30T08:03:44.893Z,3.25
2024-04-30T08:06:18.627Z,2.90
2024-04-30T08:08:48.162Z,2.47
2024-04-30T08:11:15.905Z,2.47
2024-04-30T08:13:45.508Z,2.75
2024-04-30T08:16:13.136Z,2.42
2024-04-30T08:18:40.415Z,2.58
2024-04-30T08:21:08.165Z,2.22
2024-04-30T08:23:35.548Z,2.55
2024-04-30T08:26:02.865Z,2.50
2024-04-30T08:28:30.088Z,2.50
2024-04-30T08:30:57.813Z,2.38
2024-04-30T08:33:25.444Z,2.53
2024-04-30T08:35:52.633Z,2.30
2024-04-30T08:38:19.869Z,2.33
2024-04-30T08:40:47.238Z,2.53
2024-04-30T08:43:15.105Z,2.42
2024-04-30T08:45:43.134Z,2.55
2024-04-30T08:48:11.456Z,2.47
2024-04-30T08:50:39.070Z,2.40
2024-04-30T08:53:08.322Z,2.88
2024-04-30T08:55:36.287Z,2.53
2024-04-30T08:58:03.830Z,2.33
2024-04-30T09:00:31.084Z,2.30
2024-04-30T09:03:02.727Z,2.45
2024-04-30T09:05:31.899Z,2.50
2024-04-30T09:07:59.921Z,2.60
2024-04-30T09:10:27.285Z,2.28
2024-04-30T09:13:00.618Z,2.55
2024-04-30T09:15:27.769Z,2.17
2024-04-30T09:18:05.258Z,2.50
2024-04-30T09:20:32.437Z,2.50
2024-04-30T09:23:00.925Z,2.70
2024-04-30T09:25:37.704Z,2.70
2024-04-30T09:28:17.478Z,2.88
2024-04-30T09:30:45.067Z,2.45
2024-04-30T09:33:12.455Z,2.50
2024-04-30T09:35:39.633Z,2.47
2024-04-30T09:38:09.059Z,2.42
2024-04-30T09:40:36.627Z,2.55
2024-04-30T09:43:04.455Z,2.22
2024-04-30T09:45:32.586Z,2.28
2024-04-30T09:48:01.474Z,3.05
2024-04-30T09:50:28.716Z,2.60
2024-04-30T09:52:55.916Z,2.28
2024-04-30T09:55:25.673Z,2.55
2024-04-30T09:57:52.857Z,2.72
2024-04-30T10:00:24.923Z,2.60
2024-04-30T10:03:04.702Z,2.60
2024-04-30T10:05:41.194Z,2.60
2024-04-30T10:08:09.526Z,2.65
2024-04-30T10:10:36.830Z,2.58
2024-04-30T10:13:10.851Z,2.67
2024-04-30T10:15:41.213Z,2.95
2024-04-30T10:18:11.075Z,2.90
2024-04-30T10:20:39.020Z,2.60
2024-04-30T10:23:07.115Z,3.15
2024-04-30T10:25:34.579Z,2.55
2024-04-30T10:28:09.604Z,2.70
2024-04-30T10:30:37.365Z,2.70
2024-04-30T10:33:05.120Z,2.70
2024-04-30T10:35:44.903Z,2.72
2024-04-30T10:38:12.032Z,2.83
2024-04-30T10:40:39.309Z,3.20
2024-04-30T10:43:06.536Z,2.60
2024-04-30T10:45:33.758Z,3.03
2024-04-30T10:48:01.125Z,3.17
2024-04-30T10:50:29.916Z,2.88
2024-04-30T10:53:00.776Z,2.97
2024-04-30T10:55:28.130Z,3.00
2024-04-30T10:57:55.259Z,2.80
2024-04-30T11:00:22.464Z,2.45
2024-04-30T11:02:56.550Z,3.20
2024-04-30T11:05:24.655Z,2.92
2024-04-30T11:07:58.432Z,2.80
2024-04-30T11:10:29.405Z,3.10
2024-04-30T11:13:00.000Z,3.08
2024-04-30T11:15:27.213Z,2.88
2024-04-30T11:17:54.518Z,3.25
2024-04-30T11:20:21.914Z,3.17
2024-04-30T11:22:49.255Z,2.92
2024-04-30T11:25:16.553Z,3.10
2024-04-30T11:27:43.746Z,3.10
2024-04-30T11:30:11.208Z,3.10
2024-04-30T11:32:38.632Z,3.22
2024-04-30T11:35:05.835Z,2.80
2024-04-30T11:37:34.843Z,3.28
2024-04-30T11:40:02.196Z,3.10
2024-04-30T11:42:34.657Z,3.10
2024-04-30T11:45:08.969Z,3.20
2024-04-30T11:47:36.260Z,2.90
2024-04-30T11:50:03.699Z,3.05
2024-04-30T11:52:30.894Z,3.60
2024-04-30T11:54:59.228Z,3.10
2024-04-30T11:57:26.775Z,3.17
2024-04-30T11:59:54.814Z,3.63
2024-04-30T12:02:22.175Z,3.10
2024-04-30T12:04:49.650Z,3.42
2024-04-30T12:07:16.990Z,2.95
2024-04-30T12:09:44.189Z,3.33
2024-04-30T12:12:11.391Z,3.28
2024-04-30T12:14:38.600Z,3.25
2024-04-30T12:17:06.953Z,2.92
2024-04-30T12:19:34.402Z,3.03
2024-04-30T12:22:01.709Z,3.17
2024-04-30T12:24:28.877Z,3.40
2024-04-30T12:26:57.874Z,3.35
2024-04-30T12:29:25.095Z,3.65
2024-04-30T12:31:52.335Z,3.35
2024-04-30T12:34:19.617Z,3.28
2024-04-30T12:36:46.828Z,3.33
2024-04-30T12:39:14.383Z,4.32
2024-04-30T12:41:41.818Z,3.13
2024-04-30T12:44:11.790Z,3.50
2024-04-30T12:46:39.046Z,3.13
2024-04-30T12:49:06.513Z,2.72
2024-04-30T12:51:33.762Z,3.17
2024-04-30T12:54:01.070Z,3.38
2024-04-30T12:56:28.230Z,3.42
2024-04-30T12:58:55.580Z,3.40
2024-04-30T13:01:25.508Z,3.45
2024-04-30T13:03:53.506Z,2.95
2024-04-30T13:06:20.880Z,3.28
2024-04-30T13:08:48.258Z,3.10
2024-04-30T13:11:15.672Z,3.15
2024-04-30T13:13:42.987Z,3.45
2024-04-30T13:16:10.304Z,3.45
2024-04-30T13:18:37.765Z,3.75
2024-04-30T13:21:05.275Z,3.30
2024-04-30T13:23:36.114Z,3.35
2024-04-30T13:26:03.299Z,3.55
2024-04-30T13:28:30.709Z,3.00
2024-04-30T13:30:59.366Z,2.70
2024-04-30T13:33:29.470Z,3.13
2024-04-30T13:35:56.752Z,3.58
2024-04-30T13:38:24.201Z,3.30
2024-04-30T13:40:51.483Z,2.88
2024-04-30T13:43:19.769Z,2.90
2024-04-30T13:45:47.369Z,3.25
2024-04-30T13:48:14.670Z,2.95
2024-04-30T13:50:41.854Z,3.00
2024-04-30T13:53:09.572Z,2.90
2024-04-30T13:55:36.750Z,3.30
2024-04-30T13:58:05.491Z,3.22
2024-04-30T14:00:32.738Z,2.95
2024-04-30T14:02:59.937Z,3.20
2024-04-30T14:05:27.163Z,3.58
2024-04-30T14:07:54.480Z,3.13
2024-04-30T14:10:21.739Z,3.10
2024-04-30T14:12:49.660Z,3.13
2024-04-30T14:15:17.134Z,3.40
2024-04-30T14:17:44.447Z,3.05
2024-04-30T14:20:11.669Z,3.55
2024-04-30T14:22:39.113Z,3.08
2024-04-30T14:25:07.072Z,2.85
2024-04-30T14:27:34.251Z,3.20
2024-04-30T14:30:01.433Z,3.60
2024-04-30T14:34:55.943Z,3.10
2024-04-30T14:37:23.213Z,3.30
2024-04-30T14:39:52.450Z,3.28
2024-04-30T14:42:19.735Z,3.20
2024-04-30T14:44:49.315Z,3.90
2024-04-30T14:47:16.600Z,3.15
2024-04-30T14:49:43.909Z,3.47
2024-04-30T14:52:11.206Z,3.22
2024-04-30T14:54:40.727Z,3.13
2024-04-30T14:57:07.908Z,2.97
2024-04-30T14:59:35.273Z,3.15
2024-04-30T15:02:02.583Z,3.38
2024-04-30T15:04:29.926Z,3.70
2024-04-30T15:06:57.199Z,3.30
2024-04-30T15:09:24.319Z,2.90
2024-04-30T15:11:51.639Z,3.13
2024-04-30T15:14:18.772Z,3.53
2024-04-30T15:16:46.032Z,3.72
2024-04-30T15:19:13.392Z,4.57
2024-04-30T15:21:44.606Z,3.97
2024-04-30T15:24:12.059Z,2.97
2024-04-30T15:26:42.216Z,3.50
2024-04-30T15:29:12.359Z,3.13
2024-04-30T15:31:39.563Z,3.92
2024-04-30T15:34:06.716Z,3.50
2024-04-30T15:36:33.830Z,3.50
2024-04-30T15:39:00.950Z,3.38
2024-04-30T15:41:28.137Z,3.78
2024-04-30T15:43:55.346Z,3.83
2024-04-30T15:46:22.753Z,2.97
2024-04-30T15:48:52.253Z,3.58
2024-04-30T15:51:19.627Z,3.10
2024-04-30T15:53:46.755Z,3.63
2024-04-30T15:56:18.349Z,3.30
2024-04-30T15:58:46.583Z,3.20
2024-04-30T16:01:14.111Z,2.95
2024-04-30T16:03:41.484Z,3.70
2024-04-30T16:06:08.899Z,2.90
2024-04-30T16:08:36.662Z,3.20
2024-04-30T16:11:10.369Z,4.32
2024-04-30T16:13:39.396Z,3.50
2024-04-30T16:16:12.987Z,3.00
2024-04-30T16:18:45.894Z,3.38
2024-04-30T16:21:13.561Z,2.80
2024-04-30T16:23:40.685Z,3.35
2024-04-30T16:26:08.301Z,3.17
2024-04-30T16:28:35.971Z,3.10
2024-04-30T16:31:04.213Z,3.17
2024-04-30T16:33:31.932Z,3.70
2024-04-30T16:35:59.289Z,3.55
2024-04-30T16:38:26.433Z,2.75
2024-04-30T16:40:54.765Z,3.70
2024-04-30T16:43:22.890Z,3.67
2024-04-30T16:45:50.614Z,3.13
2024-04-30T16:48:18.094Z,3.60
2024-04-30T16:50:45.430Z,3.88
2024-04-30T16:53:12.591Z,3.55
2024-04-30T16:55:39.774Z,3.45
2024-04-30T16:58:06.938Z,3.33
2024-04-30T17:00:34.370Z,3.47
2024-04-30T17:03:01.697Z,3.65
2024-04-30T17:05:28.960Z,3.55
2024-04-30T17:07:56.103Z,3.15
2024-04-30T17:10:23.319Z,3.22
2024-04-30T17:12:50.973Z,3.20
2024-04-30T17:15:18.372Z,3.40
2024-04-30T17:17:45.630Z,3.47
2024-04-30T17:20:12.854Z,3.15
2024-04-30T17:22:40.354Z,3.35
2024-04-30T17:25:07.980Z,4.07
2024-04-30T17:27:35.372Z,3.50
2024-04-30T17:30:02.928Z,3.03
2024-04-30T17:32:30.637Z,3.00
2024-04-30T17:34:57.934Z,3.92
2024-04-30T17:37:26.244Z,3.85
2024-04-30T17:39:53.541Z,3.35
2024-04-30T17:42:20.807Z,3.92
2024-04-30T17:44:48.014Z,3.58
2024-04-30T17:47:15.228Z,2.95
2024-04-30T17:49:42.504Z,3.00
2024-04-30T17:52:09.688Z,3.28
2024-04-30T17:54:36.908Z,3.33
2024-04-30T17:57:04.320Z,3.33
2024-04-30T17:59:31.460Z,3.13
2024-04-30T18:01:58.777Z,3.83
2024-04-30T18:04:26.126Z,3.10
2024-04-30T18:06:53.558Z,2.60
2024-04-30T18:09:20.919Z,3.17
2024-04-30T18:11:48.205Z,2.95
2024-04-30T18:14:15.481Z,4.13
2024-04-30T18:16:42.727Z,3.28
2024-04-30T18:19:10.215Z,3.92
2024-04-30T18:21:38.208Z,3.92
2024-04-30T18:24:07.683Z,3.28
2024-04-30T18:26:42.567Z,3.53
2024-04-30T18:29:10.171Z,3.50
2024-04-30T18:31:37.375Z,3.70
2024-04-30T18:34:04.780Z,3.58
2024-04-30T18:36:37.310Z,3.47
2024-04-30T18:39:05.735Z,3.30
2024-04-30T18:41:34.329Z,3.80
2024-04-30T18:44:01.487Z,3.67
2024-04-30T18:46:28.644Z,4.00
2024-04-30T18:48:56.316Z,3.72
2024-04-30T18:51:24.196Z,4.10
2024-04-30T18:53:51.500Z,3.95
2024-04-30T18:56:19.095Z,4.22
2024-04-30T18:58:47.890Z,3.70
2024-04-30T19:01:16.688Z,4.03
2024-04-30T19:03:46.804Z,4.68
2024-04-30T19:06:16.170Z,4.40
2024-04-30T19:08:44.068Z,4.63
2024-04-30T19:11:11.688Z,4.68
2024-04-30T19:13:39.538Z,3.78
2024-04-30T19:16:07.069Z,3.80
2024-04-30T19:18:37.407Z,4.57
2024-04-30T19:21:05.099Z,3.80
2024-04-30T19:23:33.827Z,3.88
2024-04-30T19:26:01.754Z,4.32
2024-04-30T19:28:30.084Z,4.00
2024-04-30T19:30:57.340Z,4.18
2024-04-30T19:33:25.964Z,4.25
2024-04-30T19:35:53.447Z,4.30
2024-04-30T19:38:20.635Z,3.97
2024-04-30T19:40:47.862Z,4.60
2024-04-30T19:43:16.180Z,3.95
2024-04-30T19:45:43.837Z,3.83
2024-04-30T19:48:16.838Z,3.90
2024-04-30T19:50:46.238Z,4.30
2024-04-30T19:53:13.387Z,4.50
2024-04-30T19:55:41.399Z,3.78
2024-04-30T19:58:09.556Z,4.40
2024-04-30T20:00:36.842Z,4.20
2024-04-30T20:03:04.421Z,3.97
2024-04-30T20:05:32.078Z,4.07
2024-04-30T20:08:00.604Z,4.40
2024-04-30T20:10:27.921Z,3.97
2024-04-30T20:12:55.407Z,4.88
2024-04-30T20:15:22.747Z,3.97
2024-04-30T20:17:50.039Z,4.13
2024-04-30T20:20:17.350Z,4.03
2024-04-30T20:22:46.109Z,3.88
2024-04-30T20:25:14.239Z,3.88
2024-04-30T20:27:42.011Z,4.00
2024-04-30T20:30:11.794Z,4.03
2024-04-30T20:32:40.578Z,4.15
2024-04-30T20:35:08.260Z,4.40
2024-04-30T20:37:35.525Z,3.90
2024-04-30T20:40:03.670Z,3.95
2024-04-30T20:42:31.063Z,3.55
2024-04-30T20:44:58.291Z,4.07
2024-04-30T20:47:25.961Z,4.80
2024-04-30T20:49:53.445Z,4.30
2024-04-30T20:52:20.791Z,4.15
2024-04-30T20:54:47.977Z,3.70
2024-04-30T20:57:15.229Z,4.85
2024-04-30T20:59:42.553Z,4.30
2024-04-30T21:02:10.238Z,4.68
2024-04-30T21:04:37.668Z,4.65
2024-04-30T21:07:05.175Z,4.45
2024-04-30T21:09:32.871Z,4.35
2024-04-30T21:12:00.267Z,4.10
2024-04-30T21:14:27.683Z,5.13
2024-04-30T21:16:54.823Z,4.32
2024-04-30T21:19:22.194Z,4.40
2024-04-30T21:21:49.669Z,4.60
2024-04-30T21:24:16.907Z,4.95
2024-04-30T21:26:44.111Z,4.90
2024-04-30T21:29:11.323Z,4.28
2024-04-30T21:31:38.524Z,7.30
2024-04-30T21:34:05.671Z,4.70
2024-04-30T21:36:33.299Z,4.90
2024-04-30T21:39:00.461Z,4.40
2024-04-30T21:41:27.614Z,4.60
2024-04-30T21:43:54.746Z,5.00
2024-04-30T21:46:21.893Z,4.75
2024-04-30T21:48:49.150Z,4.95
2024-04-30T21:51:20.042Z,5.70
2024-04-30T21:53:47.648Z,4.70
2024-04-30T21:56:16.082Z,5.07
2024-04-30T21:58:43.277Z,4.35
